Time;durP1;ratioP1;P1;durP2;ratioP2;P2;SDS_P1;SDS_P2;PMS_P1;PMS_P2;Temp;Humidity;BMP_temperature;BMP_pressure;BME280_temperature;BME280_humidity;BME280_pressure;Samples;Min_cycle;Max_cycle;Signal;HPM_P1;HPM_P2
2022/03/13 00:00:11;;;;;;;14.87;13.40;;;5.00;60.50;;;;;;5116028;27;20647;-85
2022/03/13 00:02:39;;;;;;;13.60;12.30;;;4.80;63.30;;;;;;5098886;27;20685;-86
2022/03/13 00:05:10;;;;;;;12.60;11.30;;;4.70;64.10;;;;;;5106152;27;20667;-86
2022/03/13 00:07:42;;;;;;;13.30;11.90;;;4.30;62.70;;;;;;5118171;27;20732;-85
2022/03/13 00:10:10;;;;;;;12.77;11.57;;;4.30;61.30;;;;;;5107877;27;20655;-85
2022/03/13 00:12:38;;;;;;;12.77;11.47;;;4.60;61.20;;;;;;5113584;27;21509;-86
2022/03/13 00:15:12;;;;;;;14.63;12.67;;;4.40;62.20;;;;;;5112785;27;20658;-85
2022/03/13 00:17:39;;;;;;;12.37;11.27;;;4.50;61.80;;;;;;5117116;27;21195;-86
2022/03/13 00:20:09;;;;;;;13.00;11.80;;;4.10;61.50;;;;;;5102797;27;20645;-85
2022/03/13 00:22:37;;;;;;;12.20;11.03;;;4.70;61.20;;;;;;5106610;27;20622;-86
2022/03/13 00:25:09;;;;;;;11.57;10.63;;;4.40;61.40;;;;;;5102312;27;20644;-86
2022/03/13 00:27:36;;;;;;;13.20;11.90;;;4.30;61.30;;;;;;5106604;27;20657;-85
2022/03/13 00:30:05;;;;;;;13.10;11.90;;;4.50;60.70;;;;;;5110508;27;20654;-85
2022/03/13 00:32:33;;;;;;;15.23;13.23;;;4.20;65.00;;;;;;5108158;27;20639;-85
2022/03/13 00:35:00;;;;;;;12.60;10.80;;;4.20;63.60;;;;;;5103754;27;21009;-84
2022/03/13 00:37:26;;;;;;;12.30;11.17;;;4.00;63.60;;;;;;5115085;27;20646;-86
2022/03/13 00:39:55;;;;;;;11.40;10.23;;;3.90;61.20;;;;;;5103456;27;20653;-86
2022/03/13 00:42:23;;;;;;;11.23;10.13;;;4.10;61.10;;;;;;5114003;27;20612;-86
2022/03/13 00:44:50;;;;;;;11.17;10.07;;;4.30;60.30;;;;;;5106378;27;21180;-86
2022/03/13 00:47:18;;;;;;;11.93;10.73;;;4.00;60.80;;;;;;5115337;27;20628;-86
2022/03/13 00:49:45;;;;;;;12.43;10.60;;;3.60;61.20;;;;;;5108182;27;20658;-86
2022/03/13 00:52:12;;;;;;;12.50;10.13;;;3.50;64.00;;;;;;5107995;27;20635;-87
2022/03/13 00:54:38;;;;;;;12.63;11.27;;;3.80;64.30;;;;;;5109541;27;20671;-84
2022/03/13 00:57:05;;;;;;;11.83;10.60;;;3.40;63.30;;;;;;5107765;27;20635;-86
2022/03/13 00:59:34;;;;;;;12.40;11.10;;;3.60;66.80;;;;;;5108934;27;20643;-85
2022/03/13 01:02:00;;;;;;;12.77;11.57;;;3.30;67.30;;;;;;5112415;27;20648;-85
2022/03/13 01:04:28;;;;;;;12.60;11.40;;;3.70;66.80;;;;;;5114338;27;21121;-85
2022/03/13 01:06:54;;;;;;;13.60;12.33;;;3.60;65.30;;;;;;5105451;27;20637;-86
2022/03/13 01:09:21;;;;;;;13.47;12.07;;;3.10;65.80;;;;;;5107156;27;20625;-85
2022/03/13 01:11:49;;;;;;;14.43;12.83;;;3.50;64.80;;;;;;5106892;27;20606;-85
2022/03/13 01:14:17;;;;;;;15.13;11.10;;;3.50;64.20;;;;;;5106115;27;20618;-86
2022/03/13 01:16:46;;;;;;;14.20;12.80;;;3.40;66.10;;;;;;5105789;27;20666;-86
2022/03/13 01:19:13;;;;;;;15.17;13.63;;;3.10;68.80;;;;;;5107652;27;20661;-86
2022/03/13 01:21:42;;;;;;;16.83;15.23;;;3.00;68.50;;;;;;5110233;27;20975;-86
2022/03/13 01:24:20;;;;;;;17.27;15.33;;;3.50;71.10;;;;;;5103660;28;20650;-87
2022/03/13 01:26:52;;;;;;;16.97;14.53;;;3.30;72.70;;;;;;5109150;28;20615;-87
2022/03/13 01:29:19;;;;;;;17.97;16.17;;;2.80;75.30;;;;;;5110404;28;20615;-86
2022/03/13 01:31:49;;;;;;;19.63;17.53;;;2.90;76.50;;;;;;5112594;28;20625;-85
2022/03/13 01:34:39;;;;;;;18.60;16.43;;;3.10;78.50;;;;;;5119907;28;20627;-86
2022/03/13 01:37:08;;;;;;;19.57;17.73;;;2.60;79.40;;;;;;5111381;28;20643;-84
2022/03/13 01:39:35;;;;;;;19.67;17.57;;;3.10;82.50;;;;;;5122487;28;20712;-85
2022/03/13 01:42:03;;;;;;;20.77;18.57;;;3.10;84.20;;;;;;5113224;28;20624;-86
2022/03/13 01:44:29;;;;;;;20.37;18.27;;;2.90;85.80;;;;;;5126986;28;20625;-85
2022/03/13 01:47:00;;;;;;;22.73;20.73;;;3.00;88.00;;;;;;5134462;28;20624;-85
2022/03/13 01:49:27;;;;;;;21.83;19.50;;;3.10;90.20;;;;;;5108791;28;20630;-86
2022/03/13 01:51:53;;;;;;;22.50;20.10;;;2.50;90.90;;;;;;5112903;28;21164;-85
2022/03/13 01:54:21;;;;;;;22.20;19.83;;;3.10;91.20;;;;;;5112981;28;20624;-86
2022/03/13 01:56:48;;;;;;;23.07;20.67;;;2.80;91.30;;;;;;5115874;28;20713;-85
2022/03/13 01:59:16;;;;;;;20.27;18.07;;;3.10;91.30;;;;;;5113056;28;20637;-85
2022/03/13 02:01:43;;;;;;;22.50;20.37;;;2.80;91.90;;;;;;5089506;28;20626;-86
2022/03/13 02:04:13;;;;;;;24.10;21.60;;;2.90;92.50;;;;;;5111849;28;20616;-86
2022/03/13 02:06:40;;;;;;;24.97;22.53;;;2.80;92.70;;;;;;5119530;28;20679;-86
2022/03/13 02:09:07;;;;;;;24.80;21.77;;;2.80;94.20;;;;;;5105653;28;20662;-85
2022/03/13 02:11:40;;;;;;;23.60;21.30;;;2.80;94.00;;;;;;5107180;28;21031;-85
2022/03/13 02:14:10;;;;;;;21.20;19.17;;;2.50;94.00;;;;;;5102982;28;20629;-85
2022/03/13 02:16:37;;;;;;;24.43;21.93;;;2.50;94.40;;;;;;5110553;28;21073;-85
2022/03/13 02:19:06;;;;;;;23.57;21.47;;;2.60;93.80;;;;;;5115438;28;20633;-84
2022/03/13 02:21:42;;;;;;;23.77;21.63;;;2.70;94.00;;;;;;5111456;28;20651;-85
2022/03/13 02:24:14;;;;;;;22.53;20.33;;;2.60;94.20;;;;;;5108194;27;20645;-85
2022/03/13 02:26:43;;;;;;;23.73;21.43;;;2.40;93.70;;;;;;5108658;27;20710;-85
2022/03/13 02:29:14;;;;;;;22.93;20.73;;;2.50;94.10;;;;;;5114571;27;21372;-87
2022/03/13 02:31:41;;;;;;;21.63;19.63;;;2.30;94.30;;;;;;5110132;27;20621;-85
2022/03/13 02:34:12;;;;;;;22.70;20.40;;;2.00;94.20;;;;;;5106933;27;21202;-86
2022/03/13 02:36:55;;;;;;;20.97;18.87;;;2.40;94.90;;;;;;5110061;27;20758;-86
2022/03/13 02:39:25;;;;;;;20.87;18.87;;;2.50;95.40;;;;;;5108563;27;21341;-86
2022/03/13 02:41:52;;;;;;;21.23;19.20;;;2.20;95.00;;;;;;5106474;27;20623;-87
2022/03/13 02:44:19;;;;;;;21.20;18.90;;;2.40;95.90;;;;;;5110067;27;20636;-86
2022/03/13 02:47:01;;;;;;;20.63;18.73;;;2.30;95.50;;;;;;5126396;27;20635;-86
2022/03/13 02:49:30;;;;;;;21.53;17.63;;;2.30;95.00;;;;;;5116333;27;20632;-86
2022/03/13 02:51:59;;;;;;;20.37;17.73;;;2.50;93.40;;;;;;5111948;27;20616;-85
2022/03/13 02:54:28;;;;;;;21.67;19.70;;;2.30;93.20;;;;;;5101727;27;20640;-86
2022/03/13 02:56:55;;;;;;;21.60;19.50;;;2.60;94.00;;;;;;5121433;27;20667;-86
2022/03/13 02:59:22;;;;;;;20.00;18.07;;;2.30;94.60;;;;;;5111077;27;20628;-86
2022/03/13 03:01:50;;;;;;;19.70;17.80;;;1.80;94.40;;;;;;5106352;28;20616;-86
2022/03/13 03:04:17;;;;;;;17.13;14.43;;;2.00;94.70;;;;;;5108625;27;20986;-86
2022/03/13 03:06:59;;;;;;;17.50;15.63;;;2.30;95.00;;;;;;5126670;27;20628;-84
2022/03/13 03:09:29;;;;;;;17.67;15.97;;;2.20;94.40;;;;;;5117900;27;20640;-86
2022/03/13 03:11:57;;;;;;;18.00;16.30;;;2.20;93.00;;;;;;5110996;27;20612;-86
2022/03/13 03:14:24;;;;;;;16.83;15.23;;;2.30;93.70;;;;;;5107982;27;20631;-86
2022/03/13 03:16:54;;;;;;;18.37;16.30;;;2.20;93.60;;;;;;5113475;27;21046;-86
2022/03/13 03:19:22;;;;;;;18.70;15.80;;;2.30;94.00;;;;;;5106211;27;20620;-86
2022/03/13 03:21:49;;;;;;;16.40;14.70;;;2.20;94.20;;;;;;5120804;27;20665;-86
2022/03/13 03:24:19;;;;;;;17.07;15.47;;;2.20;94.80;;;;;;5136201;27;20641;-85
2022/03/13 03:26:49;;;;;;;16.83;14.97;;;2.20;95.00;;;;;;5126854;27;20661;-85
2022/03/13 03:29:16;;;;;;;15.57;14.00;;;2.10;95.30;;;;;;5108701;27;20711;-86
2022/03/13 03:31:45;;;;;;;17.40;15.43;;;2.20;93.90;;;;;;5114532;27;20610;-85
2022/03/13 03:34:15;;;;;;;18.07;16.17;;;2.00;94.10;;;;;;5107891;27;20608;-85
2022/03/13 03:36:45;;;;;;;14.97;13.37;;;2.00;93.70;;;;;;5111930;27;20652;-85
2022/03/13 03:39:13;;;;;;;16.80;15.10;;;1.80;94.50;;;;;;5107413;27;20644;-85
2022/03/13 03:41:42;;;;;;;17.60;15.87;;;2.00;93.70;;;;;;5104157;27;20640;-86
2022/03/13 03:44:10;;;;;;;16.07;14.53;;;2.10;93.30;;;;;;5108545;27;20625;-85
2022/03/13 03:46:38;;;;;;;18.67;15.97;;;2.30;93.80;;;;;;5109028;27;20613;-86
2022/03/13 03:49:05;;;;;;;16.57;14.97;;;1.90;94.10;;;;;;5107277;27;20652;-86
2022/03/13 03:51:33;;;;;;;17.73;13.90;;;1.50;93.50;;;;;;5115680;27;20650;-86
2022/03/13 03:54:00;;;;;;;16.27;14.73;;;1.60;92.60;;;;;;5103795;27;21084;-86
2022/03/13 03:56:27;;;;;;;16.10;14.53;;;2.10;94.10;;;;;;5112716;27;20660;-85
2022/03/13 03:58:54;;;;;;;16.10;14.60;;;1.70;94.10;;;;;;5112699;27;20628;-85
2022/03/13 04:01:22;;;;;;;17.90;16.10;;;2.20;94.10;;;;;;5106744;28;21269;-86
2022/03/13 04:03:51;;;;;;;18.20;16.40;;;2.20;94.20;;;;;;5110657;27;20617;-85
2022/03/13 04:06:18;;;;;;;17.23;15.00;;;1.90;94.50;;;;;;5107641;27;20636;-84
2022/03/13 04:08:47;;;;;;;17.50;15.87;;;1.90;94.50;;;;;;5106959;27;20625;-86
2022/03/13 04:11:13;;;;;;;16.30;14.70;;;1.80;95.30;;;;;;5110638;27;20644;-85
2022/03/13 04:13:40;;;;;;;16.70;15.17;;;1.90;95.90;;;;;;5110917;27;20619;-85
2022/03/13 04:16:10;;;;;;;16.13;14.57;;;1.70;96.30;;;;;;5107861;27;20663;-86
2022/03/13 04:18:38;;;;;;;15.90;14.37;;;1.80;97.00;;;;;;5115530;27;21243;-85
2022/03/13 04:21:06;;;;;;;17.70;16.10;;;1.20;96.30;;;;;;5111731;27;20639;-84
2022/03/13 04:23:35;;;;;;;17.73;16.30;;;1.70;96.10;;;;;;5101759;27;20641;-85
2022/03/13 04:26:02;;;;;;;18.70;16.80;;;1.60;97.00;;;;;;5108262;27;20619;-84
2022/03/13 04:28:30;;;;;;;17.90;16.10;;;1.80;97.10;;;;;;5109445;27;20622;-86
2022/03/13 04:30:59;;;;;;;17.17;15.67;;;1.80;97.00;;;;;;5107357;27;20644;-86
2022/03/13 04:33:27;;;;;;;17.77;16.10;;;1.90;97.00;;;;;;5104300;28;20612;-86
2022/03/13 04:35:58;;;;;;;18.43;16.73;;;1.80;96.70;;;;;;5107688;27;20655;-85
2022/03/13 04:38:26;;;;;;;18.77;16.83;;;1.70;97.30;;;;;;5108716;27;21227;-86
2022/03/13 04:40:54;;;;;;;19.37;17.10;;;1.20;98.00;;;;;;5103853;27;20695;-86
2022/03/13 04:43:22;;;;;;;18.83;17.13;;;1.50;99.40;;;;;;5108439;27;20634;-86
2022/03/13 04:45:49;;;;;;;19.57;17.80;;;1.80;99.40;;;;;;5109716;27;21174;-85
2022/03/13 04:48:16;;;;;;;18.87;17.07;;;1.80;99.50;;;;;;5108768;27;20723;-85
2022/03/13 04:50:43;;;;;;;18.97;17.30;;;1.70;99.80;;;;;;5108637;27;20644;-85
2022/03/13 04:53:11;;;;;;;18.30;16.50;;;1.30;99.90;;;;;;5106686;27;20637;-85
2022/03/13 04:55:38;;;;;;;23.20;21.00;;;1.80;99.90;;;;;;5108474;27;20637;-85
2022/03/13 04:58:05;;;;;;;26.03;20.50;;;1.80;99.90;;;;;;5103850;27;20653;-86
2022/03/13 05:00:33;;;;;;;23.50;21.20;;;1.40;99.90;;;;;;5110618;27;20647;-85
2022/03/13 05:02:59;;;;;;;21.50;19.50;;;1.50;99.90;;;;;;5107483;27;20614;-85
2022/03/13 05:05:26;;;;;;;22.00;19.90;;;1.40;99.90;;;;;;5105577;27;20663;-86
2022/03/13 05:07:54;;;;;;;22.37;20.47;;;1.40;99.90;;;;;;5116000;27;20610;-86
2022/03/13 05:10:23;;;;;;;22.80;20.40;;;1.40;99.90;;;;;;5106959;27;20659;-86
2022/03/13 05:12:50;;;;;;;22.50;20.27;;;1.30;99.90;;;;;;5104617;27;20660;-86
2022/03/13 05:15:19;;;;;;;22.37;20.13;;;1.30;99.90;;;;;;5107759;27;20623;-84
2022/03/13 05:17:46;;;;;;;22.43;19.57;;;1.30;99.90;;;;;;5110492;27;20756;-84
2022/03/13 05:20:13;;;;;;;21.07;19.07;;;0.80;99.90;;;;;;5110964;27;20660;-85
2022/03/13 05:22:40;;;;;;;22.27;20.27;;;1.10;99.90;;;;;;5110003;27;21157;-85
2022/03/13 05:25:08;;;;;;;22.67;20.57;;;1.30;99.90;;;;;;5106923;27;20643;-85
2022/03/13 05:27:36;;;;;;;23.43;21.10;;;1.30;99.90;;;;;;5102307;28;20620;-86
2022/03/13 05:30:03;;;;;;;22.30;19.97;;;1.20;99.90;;;;;;5106353;28;20637;-86
2022/03/13 05:32:30;;;;;;;23.63;21.13;;;1.20;99.90;;;;;;5110757;27;21150;-85
2022/03/13 05:34:57;;;;;;;22.80;20.33;;;1.20;99.90;;;;;;5106471;27;20638;-86
2022/03/13 05:37:25;;;;;;;23.73;21.60;;;1.20;99.90;;;;;;5107012;27;20882;-86
2022/03/13 05:39:52;;;;;;;24.00;21.50;;;1.30;99.90;;;;;;5107658;28;20721;-87
2022/03/13 05:42:26;;;;;;;23.20;21.07;;;1.20;99.90;;;;;;5106677;28;20643;-85
2022/03/13 05:44:54;;;;;;;24.27;21.77;;;1.30;99.90;;;;;;5113917;28;20674;-85
2022/03/13 05:47:21;;;;;;;24.03;21.73;;;1.30;99.90;;;;;;5107839;28;20628;-85
2022/03/13 05:49:49;;;;;;;25.33;22.93;;;1.00;99.90;;;;;;5114877;28;20658;-86
2022/03/13 05:52:16;;;;;;;24.73;22.30;;;1.40;99.90;;;;;;5103544;28;20628;-86
2022/03/13 05:54:43;;;;;;;25.33;22.80;;;1.00;99.90;;;;;;5108695;28;20643;-85
2022/03/13 05:57:10;;;;;;;23.53;20.40;;;1.30;99.90;;;;;;5105409;28;21254;-86
2022/03/13 05:59:37;;;;;;;23.30;21.07;;;1.30;99.90;;;;;;5112857;27;20742;-85
2022/03/13 06:02:08;;;;;;;24.67;22.43;;;1.20;99.90;;;;;;5114963;27;20624;-85
2022/03/13 06:04:36;;;;;;;26.50;24.00;;;1.50;99.90;;;;;;5114461;27;20999;-86
2022/03/13 06:07:04;;;;;;;27.20;24.13;;;1.30;99.90;;;;;;5112547;27;20972;-85
2022/03/13 06:09:32;;;;;;;26.77;24.37;;;1.50;99.90;;;;;;5122339;27;20666;-85
2022/03/13 06:11:59;;;;;;;26.53;24.10;;;1.40;99.90;;;;;;5124057;27;21048;-84
2022/03/13 06:14:26;;;;;;;24.77;22.17;;;1.30;99.90;;;;;;5117967;27;20671;-85
2022/03/13 06:16:53;;;;;;;27.30;24.50;;;1.40;99.90;;;;;;5113744;27;20707;-87
2022/03/13 06:19:22;;;;;;;26.30;23.47;;;1.60;99.90;;;;;;5114280;27;20643;-86
2022/03/13 06:21:49;;;;;;;27.83;24.87;;;1.40;99.90;;;;;;5110737;27;20624;-86
2022/03/13 06:24:17;;;;;;;27.03;24.13;;;1.70;99.90;;;;;;5112708;27;20642;-87
2022/03/13 06:26:43;;;;;;;25.63;22.87;;;1.60;99.90;;;;;;5111697;27;20616;-86
2022/03/13 06:29:18;;;;;;;27.40;24.73;;;1.70;99.90;;;;;;5113792;27;20944;-86
2022/03/13 06:31:46;;;;;;;27.60;24.63;;;1.50;99.90;;;;;;5120147;27;20610;-86
2022/03/13 06:34:12;;;;;;;27.27;24.40;;;2.00;99.90;;;;;;5114779;27;20608;-85
2022/03/13 06:36:40;;;;;;;26.77;24.03;;;1.80;99.90;;;;;;5116644;27;20663;-85
2022/03/13 06:39:07;;;;;;;29.63;26.53;;;2.00;99.90;;;;;;5107749;27;20618;-85
2022/03/13 06:41:34;;;;;;;33.20;29.70;;;2.00;99.90;;;;;;5109049;27;20641;-85
2022/03/13 06:44:02;;;;;;;29.73;26.57;;;2.20;99.90;;;;;;5123216;27;20630;-86
2022/03/13 06:46:35;;;;;;;28.50;25.47;;;2.40;99.90;;;;;;5115728;27;20627;-84
2022/03/13 06:49:05;;;;;;;25.23;21.87;;;2.60;99.90;;;;;;5124614;27;20617;-85
2022/03/13 06:51:33;;;;;;;24.13;19.50;;;2.70;99.90;;;;;;5119073;27;20642;-85
2022/03/13 06:54:01;;;;;;;21.90;19.70;;;2.60;99.90;;;;;;5110727;27;20607;-86
2022/03/13 06:56:29;;;;;;;18.90;17.00;;;2.50;99.90;;;;;;5119151;27;20615;-86
2022/03/13 06:59:00;;;;;;;21.27;19.07;;;2.30;99.90;;;;;;5111900;27;21249;-85
2022/03/13 07:01:27;;;;;;;19.33;17.30;;;2.70;99.90;;;;;;5116296;27;20669;-87
2022/03/13 07:03:55;;;;;;;20.27;18.17;;;2.50;99.50;;;;;;5117057;27;20657;-86
2022/03/13 07:06:27;;;;;;;20.57;18.37;;;2.10;98.70;;;;;;5120792;27;20616;-86
2022/03/13 07:08:55;;;;;;;25.40;18.27;;;2.60;98.60;;;;;;5116244;27;20616;-86
2022/03/13 07:11:23;;;;;;;17.13;15.43;;;2.60;97.90;;;;;;5113905;27;21299;-86
2022/03/13 07:13:50;;;;;;;17.93;15.53;;;2.90;97.50;;;;;;5109073;27;20711;-86
2022/03/13 07:16:17;;;;;;;17.30;15.43;;;2.70;97.00;;;;;;5109515;27;20679;-86
2022/03/13 07:18:44;;;;;;;18.57;13.83;;;2.80;95.80;;;;;;5112976;27;21223;-86
2022/03/13 07:21:12;;;;;;;17.20;15.40;;;3.00;94.40;;;;;;5118242;27;20665;-86
2022/03/13 07:23:40;;;;;;;17.00;13.70;;;3.00;94.00;;;;;;5123350;27;20629;-86
2022/03/13 07:26:07;;;;;;;16.83;15.07;;;3.00;93.90;;;;;;5121771;27;20638;-87
2022/03/13 07:28:35;;;;;;;15.53;14.03;;;3.40;93.10;;;;;;5108805;27;20624;-86
2022/03/13 07:31:02;;;;;;;14.70;13.20;;;3.20;91.60;;;;;;5125589;27;20651;-86
2022/03/13 07:33:28;;;;;;;13.93;12.63;;;3.60;92.50;;;;;;5116679;27;20649;-85
2022/03/13 07:35:56;;;;;;;16.00;14.43;;;3.30;91.50;;;;;;5113764;27;20618;-88
2022/03/13 07:38:23;;;;;;;15.17;13.57;;;3.80;91.10;;;;;;5118719;27;20657;-88
2022/03/13 07:40:50;;;;;;;15.13;13.63;;;3.90;90.70;;;;;;5122743;27;20642;-86
2022/03/13 07:43:17;;;;;;;15.50;13.60;;;3.50;89.90;;;;;;5122691;27;20623;-88
2022/03/13 07:45:45;;;;;;;17.63;15.10;;;3.90;90.30;;;;;;5112338;27;20610;-85
2022/03/13 07:48:12;;;;;;;15.00;13.63;;;4.30;89.70;;;;;;5111648;27;20612;-87
2022/03/13 07:50:39;;;;;;;15.53;14.03;;;4.00;89.30;;;;;;5114000;27;21460;-86
2022/03/13 07:53:06;;;;;;;15.30;13.53;;;4.30;89.10;;;;;;5110214;27;20612;-87
2022/03/13 07:55:33;;;;;;;16.60;15.10;;;4.60;88.00;;;;;;5111135;28;20619;-85
2022/03/13 07:58:00;;;;;;;16.93;15.33;;;4.70;86.90;;;;;;5110174;27;20663;-86
2022/03/13 08:00:27;;;;;;;15.13;13.60;;;4.70;86.00;;;;;;5108862;27;20706;-85
2022/03/13 08:02:55;;;;;;;14.47;12.90;;;4.80;85.00;;;;;;5111997;27;20979;-85
2022/03/13 08:05:22;;;;;;;15.57;13.97;;;5.00;84.70;;;;;;5113704;27;20624;-86
2022/03/13 08:07:51;;;;;;;15.17;13.67;;;5.00;83.50;;;;;;5121270;27;20608;-85
2022/03/13 08:10:20;;;;;;;13.87;12.57;;;5.30;82.70;;;;;;5117049;27;20709;-86
2022/03/13 08:12:48;;;;;;;14.70;13.30;;;5.30;81.40;;;;;;5122112;27;20715;-86
2022/03/13 08:15:15;;;;;;;18.80;16.80;;;5.40;79.70;;;;;;5120470;27;20617;-88
2022/03/13 08:17:42;;;;;;;16.50;14.90;;;5.70;81.10;;;;;;5122399;27;20661;-86
2022/03/13 08:20:11;;;;;;;21.50;18.57;;;5.80;79.00;;;;;;5111856;27;20650;-86
2022/03/13 08:22:38;;;;;;;16.57;14.97;;;6.10;78.30;;;;;;5119889;27;20633;-87
2022/03/13 08:25:06;;;;;;;16.87;13.50;;;5.90;76.60;;;;;;5112329;27;20638;-87
2022/03/13 08:27:34;;;;;;;15.37;13.97;;;6.30;75.70;;;;;;5113509;27;20717;-87
2022/03/13 08:30:01;;;;;;;14.60;13.30;;;6.60;75.20;;;;;;5119033;27;20653;-86
2022/03/13 08:32:28;;;;;;;16.17;14.47;;;6.70;74.20;;;;;;5113161;27;20615;-86
2022/03/13 08:34:55;;;;;;;14.43;12.67;;;6.80;73.40;;;;;;5106432;27;20624;-85
2022/03/13 08:37:23;;;;;;;16.37;14.67;;;6.80;73.00;;;;;;5107308;27;20656;-86
2022/03/13 08:39:50;;;;;;;15.00;13.60;;;7.10;73.50;;;;;;5108040;27;20773;-87
2022/03/13 08:42:17;;;;;;;17.70;15.90;;;7.40;73.60;;;;;;5104274;27;20623;-87
2022/03/13 08:44:43;;;;;;;15.80;14.17;;;7.10;72.60;;;;;;5105987;27;20627;-86
2022/03/13 08:47:10;;;;;;;17.87;14.43;;;7.40;73.70;;;;;;5111464;27;20615;-87
2022/03/13 08:49:37;;;;;;;17.53;15.80;;;7.80;73.30;;;;;;5114650;27;20654;-86
2022/03/13 08:52:04;;;;;;;16.60;14.27;;;7.60;72.40;;;;;;5103325;27;21198;-87
2022/03/13 08:54:33;;;;;;;17.10;15.40;;;7.80;72.10;;;;;;5108906;27;20623;-87
2022/03/13 08:56:59;;;;;;;17.20;15.40;;;8.00;72.60;;;;;;5109869;27;20659;-86
2022/03/13 08:59:26;;;;;;;18.10;16.33;;;7.70;71.30;;;;;;5103620;27;20632;-86
2022/03/13 09:01:53;;;;;;;16.83;15.20;;;8.10;71.70;;;;;;5112758;27;20636;-87
2022/03/13 09:04:20;;;;;;;16.20;14.10;;;7.80;71.00;;;;;;5110617;27;20624;-86
2022/03/13 09:06:49;;;;;;;17.60;15.90;;;8.00;71.50;;;;;;5098980;27;20628;-87
2022/03/13 09:09:18;;;;;;;17.43;15.73;;;8.40;70.90;;;;;;5106481;27;20631;-87
2022/03/13 09:11:47;;;;;;;18.40;16.37;;;8.30;70.40;;;;;;5112917;27;20630;-86
2022/03/13 09:14:14;;;;;;;17.53;15.90;;;8.60;70.40;;;;;;5115341;27;20668;-86
2022/03/13 09:16:42;;;;;;;17.40;15.70;;;8.60;70.30;;;;;;5109384;27;21075;-86
2022/03/13 09:19:09;;;;;;;20.20;16.17;;;8.90;69.10;;;;;;5091723;27;20659;-86
2022/03/13 09:21:38;;;;;;;16.13;14.50;;;9.10;69.00;;;;;;5108972;27;20626;-86
2022/03/13 09:24:07;;;;;;;18.00;16.17;;;9.00;68.70;;;;;;5105242;28;20638;-87
2022/03/13 09:26:35;;;;;;;16.53;14.63;;;9.40;68.30;;;;;;5103212;27;21235;-86
2022/03/13 09:29:04;;;;;;;17.00;15.00;;;9.50;67.50;;;;;;5101983;28;20718;-87
2022/03/13 09:31:32;;;;;;;15.30;13.80;;;9.30;66.90;;;;;;5109831;27;20650;-86
2022/03/13 09:33:58;;;;;;;16.13;14.53;;;9.60;67.40;;;;;;5104734;28;20623;-86
2022/03/13 09:36:25;;;;;;;16.37;14.67;;;9.70;67.30;;;;;;5104856;28;20629;-86
2022/03/13 09:38:52;;;;;;;16.20;14.60;;;9.40;65.60;;;;;;5108362;28;20678;-87
2022/03/13 09:41:20;;;;;;;14.80;13.30;;;9.70;66.60;;;;;;5100480;28;21018;-86
2022/03/13 09:43:47;;;;;;;20.03;15.90;;;9.90;65.70;;;;;;5106817;28;20635;-86
2022/03/13 09:46:16;;;;;;;15.87;14.20;;;10.10;64.10;;;;;;5106218;28;20618;-86
2022/03/13 09:48:44;;;;;;;16.27;14.60;;;10.50;63.50;;;;;;5111282;28;20610;-86
2022/03/13 09:51:11;;;;;;;16.30;14.60;;;10.60;63.30;;;;;;5106359;28;20697;-86
2022/03/13 09:53:39;;;;;;;15.10;13.37;;;10.90;62.90;;;;;;5111309;28;20622;-86
2022/03/13 09:56:06;;;;;;;16.17;13.97;;;10.80;62.30;;;;;;5112477;28;20630;-85
2022/03/13 09:58:34;;;;;;;15.30;13.80;;;11.10;63.00;;;;;;5086364;28;20689;-87
2022/03/13 10:01:01;;;;;;;15.73;14.00;;;11.20;62.20;;;;;;5109713;28;20657;-88
2022/03/13 10:03:30;;;;;;;15.80;14.17;;;11.80;62.00;;;;;;5107641;28;21128;-88
2022/03/13 10:05:59;;;;;;;17.50;15.50;;;12.50;60.80;;;;;;5106292;28;20631;-87
2022/03/13 10:08:29;;;;;;;17.30;14.47;;;12.80;58.50;;;;;;5108487;28;20617;-87
2022/03/13 10:10:56;;;;;;;17.43;15.53;;;13.40;58.50;;;;;;5110542;28;20638;-86
2022/03/13 10:13:35;;;;;;;18.73;16.10;;;13.10;58.10;;;;;;5103881;28;20634;-88
2022/03/13 10:16:03;;;;;;;15.97;13.83;;;13.60;58.00;;;;;;5103646;28;20583;-87
2022/03/13 10:18:32;;;;;;;19.17;14.33;;;14.70;56.70;;;;;;5099787;28;21279;-87
2022/03/13 10:21:07;;;;;;;18.57;16.47;;;15.00;54.90;;;;;;5109176;28;20646;-87
2022/03/13 10:23:34;;;;;;;17.47;15.77;;;14.30;54.90;;;;;;5106232;28;20610;-87
2022/03/13 10:26:00;;;;;;;19.93;14.80;;;16.10;55.80;;;;;;5114885;28;20630;-86
2022/03/13 10:28:30;;;;;;;15.50;13.93;;;14.90;54.10;;;;;;5107835;28;20620;-87
2022/03/13 10:31:11;;;;;;;17.10;15.30;;;16.40;53.50;;;;;;5103868;28;21303;-87
2022/03/13 10:33:55;;;;;;;16.93;15.33;;;15.70;52.10;;;;;;5114274;28;20619;-87
2022/03/13 10:36:31;;;;;;;18.50;16.60;;;16.30;51.80;;;;;;5104890;28;20668;-88
2022/03/13 10:38:58;;;;;;;17.23;15.73;;;17.20;51.40;;;;;;5111254;28;20727;-87
2022/03/13 10:41:42;;;;;;;18.10;16.47;;;16.70;50.40;;;;;;5106391;28;20662;-88
2022/03/13 10:44:13;;;;;;;19.17;17.37;;;18.50;50.70;;;;;;5103258;27;21188;-87
2022/03/13 10:46:42;;;;;;;20.33;18.23;;;17.80;49.30;;;;;;5109070;27;20716;-87
2022/03/13 10:49:13;;;;;;;20.33;18.23;;;18.70;48.90;;;;;;5102635;27;20660;-87
2022/03/13 10:51:45;;;;;;;21.13;19.03;;;18.60;47.60;;;;;;5115493;27;20611;-87
2022/03/13 10:54:28;;;;;;;18.50;16.70;;;19.50;47.80;;;;;;5124385;27;20676;-87
2022/03/13 10:57:05;;;;;;;21.77;19.90;;;19.80;46.00;;;;;;5117178;27;20622;-87
2022/03/13 10:59:31;;;;;;;19.60;17.60;;;20.40;46.00;;;;;;5112291;27;21051;-87
2022/03/13 11:02:12;;;;;;;19.43;17.73;;;20.70;44.90;;;;;;5116745;27;20658;-87
2022/03/13 11:04:50;;;;;;;20.47;18.63;;;20.00;44.50;;;;;;5112077;27;20633;-86
2022/03/13 11:07:18;;;;;;;20.60;18.80;;;19.20;44.80;;;;;;5112695;27;20618;-86
2022/03/13 11:09:45;;;;;;;21.00;19.20;;;19.70;46.30;;;;;;5105879;27;20646;-87
2022/03/13 11:12:16;;;;;;;21.53;19.60;;;20.40;44.80;;;;;;5108271;27;20618;-87
2022/03/13 11:14:46;;;;;;;20.37;18.47;;;18.60;44.20;;;;;;5111431;27;20620;-88
2022/03/13 11:17:14;;;;;;;21.37;19.47;;;19.00;46.40;;;;;;5112375;27;20752;-88
2022/03/13 11:19:41;;;;;;;21.00;19.03;;;19.70;43.80;;;;;;5106523;27;20702;-86
2022/03/13 11:22:09;;;;;;;20.97;19.00;;;19.60;45.80;;;;;;5105651;27;20699;-86
2022/03/13 11:24:36;;;;;;;22.33;20.43;;;21.10;44.70;;;;;;5106556;27;20630;-87
2022/03/13 11:27:10;;;;;;;22.70;20.80;;;21.60;43.20;;;;;;5107638;27;20623;-87
2022/03/13 11:29:47;;;;;;;22.30;20.40;;;23.30;42.70;;;;;;5113367;27;20676;-88
2022/03/13 11:32:37;;;;;;;20.47;18.57;;;20.20;42.40;;;;;;5109061;27;21192;-87
2022/03/13 11:35:21;;;;;;;21.77;19.60;;;20.70;43.60;;;;;;5112596;27;20651;-88
2022/03/13 11:37:50;;;;;;;22.03;20.13;;;22.80;42.00;;;;;;5110574;27;20619;-88
2022/03/13 11:40:19;;;;;;;22.37;20.30;;;22.70;42.00;;;;;;5101493;27;20662;-88
2022/03/13 11:42:47;;;;;;;21.80;20.00;;;24.30;41.00;;;;;;5114898;27;20631;-88
2022/03/13 11:45:39;;;;;;;21.43;19.63;;;25.70;40.00;;;;;;5102378;27;20632;-88
2022/03/13 11:48:45;;;;;;;23.63;21.50;;;25.20;38.80;;;;;;5048691;28;20757;-88
2022/03/13 11:51:29;;;;;;;26.33;24.23;;;25.30;39.50;;;;;;5105872;27;20681;-88
2022/03/13 11:53:58;;;;;;;26.17;23.90;;;26.20;38.30;;;;;;5106547;27;20626;-87
2022/03/13 11:56:27;;;;;;;24.03;22.03;;;25.90;38.00;;;;;;5113037;27;20630;-86
2022/03/13 11:59:14;;;;;;;23.70;21.47;;;25.20;37.40;;;;;;5102319;27;20667;-86
2022/03/13 12:01:42;;;;;;;25.37;23.13;;;24.50;39.40;;;;;;5105761;27;20630;-86
2022/03/13 12:04:28;;;;;;;26.27;24.07;;;25.90;38.00;;;;;;5119994;27;20630;-86
2022/03/13 12:07:00;;;;;;;23.27;21.23;;;26.30;36.90;;;;;;5103579;27;20626;-87
2022/03/13 12:09:43;;;;;;;23.60;21.53;;;25.50;37.10;;;;;;5108694;27;20677;-87
2022/03/13 12:12:13;;;;;;;25.27;23.13;;;25.00;37.30;;;;;;5104516;27;20646;-86
2022/03/13 12:14:51;;;;;;;23.67;21.67;;;24.70;37.30;;;;;;5115447;27;20750;-87
2022/03/13 12:17:19;;;;;;;24.70;22.70;;;26.00;37.30;;;;;;5106546;27;20623;-86
2022/03/13 12:19:47;;;;;;;22.40;20.60;;;24.30;37.40;;;;;;5109636;27;20669;-86
2022/03/13 12:22:15;;;;;;;24.73;22.53;;;26.60;37.70;;;;;;5106288;27;20688;-86
2022/03/13 12:24:51;;;;;;;23.40;21.53;;;23.70;35.80;;;;;;5107353;27;20635;-86
2022/03/13 12:27:28;;;;;;;23.40;21.60;;;24.10;38.00;;;;;;5112942;27;21351;-86
2022/03/13 12:29:56;;;;;;;24.17;22.13;;;25.70;36.30;;;;;;5111231;28;20729;-86
2022/03/13 12:32:28;;;;;;;22.27;20.27;;;27.00;36.50;;;;;;5115424;27;20641;-87
2022/03/13 12:34:56;;;;;;;24.10;22.20;;;28.50;35.80;;;;;;5107366;27;20634;-86
2022/03/13 12:37:25;;;;;;;23.27;21.47;;;29.00;34.10;;;;;;5107260;27;20660;-88
2022/03/13 12:40:00;;;;;;;23.03;21.13;;;29.10;33.50;;;;;;5102499;27;20732;-88
2022/03/13 12:42:30;;;;;;;23.23;21.53;;;29.20;34.00;;;;;;5104874;27;20631;-86
2022/03/13 12:45:09;;;;;;;23.43;21.40;;;27.70;33.80;;;;;;5106054;27;21175;-88